PWSweather.com
Personal Weather Stations
Station Observations
KMNHACKE9
Hiram Hill, Hiram Twp., Hackensack, MN 56452

Hiram Hill, Hiram Twp.Hackensack, MN 56452

Lat: 46.934228, Lon: -94.585965

Elevation: 1414

Station Type: Rainwise MK-III-LR

Latest ConditionsUpdated 6:08:00 PM CDT Wednesday, Oct 16, 2019
Currently Today's Max Today's Min Today's Average
Temperature 42.8°F6.0°C 45.4°F7.4°C 36.7°F2.6°C 39.7°F4.3°C
Dew Point 36.4°F2.4°C 38.9°F3.8°C 35.9°F2.2°C 36.9°F2.7°C
Winds Calm Calm 3.4 mph -5.5 kmh - - 0.9 mph 1.4 kmh
Wind Gusts -- -- - -
Humidity 78% 98% 74% 90%
Pressure 30.02 in1016.6 mb 30.11 in1019.6 mb 30.01 in1016.3 mb -
Precipitation - 0.01 in0.3 mm - -
Hour Temp Dew Point Humidity Winds Wind Gusts Pressure Precip Precip Rate Daily Precip Total
06:08 PM 42.8°F6.0°C 36.4°F2.4°C 78% Calm Calm -- 30.02 in1016.6 mb 0.00 in0.0 mm 0.00 in0.0 mm 0.01 in0.3 mm
06:02 PM 43.0°F6.1°C 36.6°F2.6°C 78% Calm Calm -- 30.02 in1016.6 mb 0.00 in0.0 mm 0.00 in0.0 mm 0.01 in0.3 mm
05:56 PM 43.2°F6.2°C 36.8°F2.7°C 78% 1.4 mph WSW2.3 kmh WSW -- 30.01 in1016.3 mb 0.00 in0.0 mm 0.00 in0.0 mm 0.01 in0.3 mm
05:51 PM 43.2°F6.2°C 36.8°F2.7°C 78% Calm Calm -- 30.01 in1016.3 mb 0.00 in0.0 mm 0.00 in0.0 mm 0.01 in0.3 mm
05:45 PM 43.2°F6.2°C 36.5°F2.5°C 77% 0.3 mph SSW0.5 kmh SSW -- 30.01 in1016.3 mb 0.00 in0.0 mm 0.00 in0.0 mm 0.01 in0.3 mm
05:39 PM 43.3°F6.3°C 36.6°F2.6°C 77% Calm Calm -- 30.01 in1016.3 mb 0.00 in0.0 mm 0.00 in0.0 mm 0.01 in0.3 mm
05:34 PM 43.4°F6.3°C 36.3°F2.4°C 76% 1.8 mph SSW2.9 kmh SSW -- 30.01 in1016.3 mb 0.00 in0.0 mm 0.00 in0.0 mm 0.01 in0.3 mm
05:28 PM 43.6°F6.4°C 36.2°F2.3°C 75% Calm Calm -- 30.01 in1016.3 mb 0.00 in0.0 mm 0.00 in0.0 mm 0.01 in0.3 mm
05:23 PM 43.6°F6.4°C 36.2°F2.3°C 75% Calm Calm -- 30.01 in1016.3 mb 0.00 in0.0 mm 0.00 in0.0 mm 0.01 in0.3 mm
05:17 PM 43.7°F6.5°C 36.6°F2.6°C 76% Calm Calm -- 30.01 in1016.3 mb 0.00 in0.0 mm 0.00 in0.0 mm 0.01 in0.3 mm
05:12 PM 43.7°F6.5°C 36.3°F2.4°C 75% Calm Calm -- 30.02 in1016.6 mb 0.00 in0.0 mm 0.00 in0.0 mm 0.01 in0.3 mm
05:06 PM 43.7°F6.5°C 36.3°F2.4°C 75% Calm Calm -- 30.02 in1016.6 mb 0.00 in0.0 mm 0.00 in0.0 mm 0.01 in0.3 mm
05:01 PM 43.8°F6.6°C 36.4°F2.4°C 75% 0.6 mph S1.0 kmh S -- 30.02 in1016.6 mb 0.00 in0.0 mm 0.00 in0.0 mm 0.01 in0.3 mm
04:56 PM 43.8°F6.6°C 36.7°F2.6°C 76% Calm Calm -- 30.02 in1016.6 mb 0.00 in0.0 mm 0.00 in0.0 mm 0.01 in0.3 mm
04:50 PM 43.7°F6.5°C 36.6°F2.6°C 76% Calm Calm -- 30.02 in1016.6 mb 0.00 in0.0 mm 0.00 in0.0 mm 0.01 in0.3 mm
04:44 PM 43.7°F6.5°C 36.6°F2.6°C 76% Calm Calm -- 30.03 in1016.9 mb 0.00 in0.0 mm 0.00 in0.0 mm 0.01 in0.3 mm
04:38 PM 43.7°F6.5°C 36.0°F2.2°C 74% Calm Calm -- 30.03 in1016.9 mb 0.00 in0.0 mm 0.00 in0.0 mm 0.01 in0.3 mm
04:32 PM 44.0°F6.7°C 36.6°F2.6°C 75% Calm Calm -- 30.03 in1016.9 mb 0.00 in0.0 mm 0.00 in0.0 mm 0.01 in0.3 mm
04:26 PM 44.2°F6.8°C 36.8°F2.7°C 75% Calm Calm -- 30.04 in1017.3 mb 0.00 in0.0 mm 0.00 in0.0 mm 0.01 in0.3 mm
04:20 PM 44.3°F6.8°C 36.9°F2.7°C 75% 0.4 mph SW0.6 kmh SW -- 30.04 in1017.3 mb 0.00 in0.0 mm 0.00 in0.0 mm 0.01 in0.3 mm
04:15 PM 44.3°F6.8°C 36.9°F2.7°C 75% 2.2 mph WNW3.5 kmh WNW -- 30.04 in1017.3 mb 0.00 in0.0 mm 0.00 in0.0 mm 0.01 in0.3 mm
04:10 PM 44.0°F6.7°C 36.6°F2.6°C 75% 0.2 mph WSW0.3 kmh WSW -- 30.04 in1017.3 mb 0.00 in0.0 mm 0.00 in0.0 mm 0.01 in0.3 mm
04:04 PM 43.7°F6.5°C 37.0°F2.8°C 77% 0.2 mph SSE0.3 kmh SSE -- 30.04 in1017.3 mb 0.00 in0.0 mm 0.00 in0.0 mm 0.01 in0.3 mm
03:59 PM 43.7°F6.5°C 36.6°F2.6°C 76% 0.6 mph WSW1.0 kmh WSW -- 30.04 in1017.3 mb 0.00 in0.0 mm 0.00 in0.0 mm 0.01 in0.3 mm
03:53 PM 43.7°F6.5°C 37.0°F2.8°C 77% 2.5 mph WNW4.0 kmh WNW -- 30.04 in1017.3 mb 0.00 in0.0 mm 0.00 in0.0 mm 0.01 in0.3 mm
03:47 PM 43.7°F6.5°C 37.0°F2.8°C 77% 0.5 mph NW0.8 kmh NW -- 30.04 in1017.3 mb 0.00 in0.0 mm 0.00 in0.0 mm 0.01 in0.3 mm
03:41 PM 43.7°F6.5°C 36.6°F2.6°C 76% 0.3 mph WNW0.5 kmh WNW -- 30.04 in1017.3 mb 0.00 in0.0 mm 0.00 in0.0 mm 0.01 in0.3 mm
03:35 PM 43.7°F6.5°C 36.6°F2.6°C 76% 1.1 mph NW1.8 kmh NW -- 30.05 in1017.6 mb 0.00 in0.0 mm 0.00 in0.0 mm 0.01 in0.3 mm
03:30 PM 43.7°F6.5°C 37.0°F2.8°C 77% 1.0 mph W1.6 kmh W -- 30.05 in1017.6 mb 0.00 in0.0 mm 0.00 in0.0 mm 0.01 in0.3 mm
03:24 PM 43.7°F6.5°C 37.0°F2.8°C 77% Calm Calm -- 30.05 in1017.6 mb 0.00 in0.0 mm 0.00 in0.0 mm 0.01 in0.3 mm
03:19 PM 43.8°F6.6°C 37.1°F2.8°C 77% 2.1 mph WNW3.4 kmh WNW -- 30.05 in1017.6 mb 0.00 in0.0 mm 0.00 in0.0 mm 0.01 in0.3 mm
03:13 PM 43.7°F6.5°C 37.0°F2.8°C 77% 0.1 mph WSW0.2 kmh WSW -- 30.05 in1017.6 mb 0.00 in0.0 mm 0.00 in0.0 mm 0.01 in0.3 mm
03:08 PM 43.7°F6.5°C 37.0°F2.8°C 77% 1.0 mph W1.6 kmh W -- 30.05 in1017.6 mb 0.00 in0.0 mm 0.00 in0.0 mm 0.01 in0.3 mm
03:02 PM 43.7°F6.5°C 37.3°F2.9°C 78% 1.8 mph WNW2.9 kmh WNW -- 30.05 in1017.6 mb 0.00 in0.0 mm 0.00 in0.0 mm 0.01 in0.3 mm
02:56 PM 43.6°F6.4°C 37.2°F2.9°C 78% 1.1 mph W1.8 kmh W -- 30.06 in1017.9 mb 0.00 in0.0 mm 0.00 in0.0 mm 0.01 in0.3 mm
02:51 PM 43.7°F6.5°C 37.3°F2.9°C 78% 1.9 mph WNW3.1 kmh WNW -- 30.05 in1017.6 mb 0.00 in0.0 mm 0.00 in0.0 mm 0.01 in0.3 mm
02:45 PM 43.8°F6.6°C 37.1°F2.8°C 77% 0.4 mph SW0.6 kmh SW -- 30.05 in1017.6 mb 0.00 in0.0 mm 0.00 in0.0 mm 0.01 in0.3 mm
02:40 PM 44.1°F6.7°C 36.7°F2.6°C 75% 1.9 mph WNW3.1 kmh WNW -- 30.06 in1017.9 mb 0.00 in0.0 mm 0.00 in0.0 mm 0.01 in0.3 mm
02:34 PM 44.7°F7.1°C 37.3°F2.9°C 75% 1.6 mph W2.6 kmh W -- 30.06 in1017.9 mb 0.00 in0.0 mm 0.00 in0.0 mm 0.01 in0.3 mm
02:29 PM 45.4°F7.4°C 37.6°F3.1°C 74% 2.3 mph WNW3.7 kmh WNW -- 30.06 in1017.9 mb 0.00 in0.0 mm 0.00 in0.0 mm 0.01 in0.3 mm
02:23 PM 45.4°F7.4°C 37.9°F3.3°C 75% Calm Calm -- 30.07 in1018.3 mb 0.00 in0.0 mm 0.00 in0.0 mm 0.01 in0.3 mm
02:17 PM 44.7°F7.1°C 37.9°F3.3°C 77% 3.2 mph W5.1 kmh W -- 30.06 in1017.9 mb 0.00 in0.0 mm 0.00 in0.0 mm 0.01 in0.3 mm
02:11 PM 44.1°F6.7°C 37.4°F3.0°C 77% 0.1 mph WNW0.2 kmh WNW -- 30.06 in1017.9 mb 0.00 in0.0 mm 0.00 in0.0 mm 0.01 in0.3 mm
02:06 PM 44.0°F6.7°C 37.6°F3.1°C 78% 0.1 mph WNW0.2 kmh WNW -- 30.07 in1018.3 mb 0.00 in0.0 mm 0.00 in0.0 mm 0.01 in0.3 mm
02:00 PM 43.8°F6.6°C 37.7°F3.2°C 79% Calm Calm -- 30.07 in1018.3 mb 0.00 in0.0 mm 0.00 in0.0 mm 0.01 in0.3 mm
01:55 PM 43.7°F6.5°C 37.0°F2.8°C 77% 0.8 mph WSW1.3 kmh WSW -- 30.07 in1018.3 mb 0.00 in0.0 mm 0.00 in0.0 mm 0.01 in0.3 mm
01:50 PM 43.9°F6.6°C 37.5°F3.1°C 78% Calm Calm -- 30.07 in1018.3 mb 0.00 in0.0 mm 0.00 in0.0 mm 0.01 in0.3 mm
01:44 PM 44.2°F6.8°C 38.1°F3.4°C 79% 1.4 mph NW2.3 kmh NW -- 30.07 in1018.3 mb 0.00 in0.0 mm 0.00 in0.0 mm 0.01 in0.3 mm
01:39 PM 44.1°F6.7°C 38.3°F3.5°C 80% 0.4 mph NNW0.6 kmh NNW -- 30.07 in1018.3 mb 0.00 in0.0 mm 0.00 in0.0 mm 0.01 in0.3 mm
01:33 PM 43.7°F6.5°C 37.9°F3.3°C 80% 0.7 mph NW1.1 kmh NW -- 30.07 in1018.3 mb 0.00 in0.0 mm 0.00 in0.0 mm 0.01 in0.3 mm
01:27 PM 43.3°F6.3°C 37.6°F3.1°C 80% 1.5 mph NE2.4 kmh NE -- 30.07 in1018.3 mb 0.00 in0.0 mm 0.00 in0.0 mm 0.01 in0.3 mm
01:21 PM 43.7°F6.5°C 37.9°F3.3°C 80% 1.9 mph NW3.1 kmh NW -- 30.08 in1018.6 mb 0.00 in0.0 mm 0.00 in0.0 mm 0.01 in0.3 mm
01:15 PM 43.9°F6.6°C 38.8°F3.8°C 82% 2.6 mph WNW4.2 kmh WNW -- 30.08 in1018.6 mb 0.00 in0.0 mm 0.00 in0.0 mm 0.01 in0.3 mm
01:09 PM 43.7°F6.5°C 38.6°F3.7°C 82% 0.2 mph SE0.3 kmh SE -- 30.09 in1019.0 mb 0.00 in0.0 mm 0.00 in0.0 mm 0.01 in0.3 mm
01:03 PM 43.7°F6.5°C 38.9°F3.8°C 83% 0.6 mph NW1.0 kmh NW -- 30.09 in1019.0 mb 0.00 in0.0 mm 0.00 in0.0 mm 0.01 in0.3 mm
12:58 PM 43.7°F6.5°C 38.6°F3.7°C 82% Calm Calm -- 30.09 in1019.0 mb 0.00 in0.0 mm 0.00 in0.0 mm 0.01 in0.3 mm
12:52 PM 43.6°F6.4°C 38.8°F3.8°C 83% 0.1 mph NNE0.2 kmh NNE -- 30.09 in1019.0 mb 0.00 in0.0 mm 0.00 in0.0 mm 0.01 in0.3 mm
12:47 PM 43.3°F6.3°C 38.8°F3.8°C 84% Calm Calm -- 30.09 in1019.0 mb 0.00 in0.0 mm 0.00 in0.0 mm 0.01 in0.3 mm
12:42 PM 43.1°F6.2°C 38.9°F3.8°C 85% 0.2 mph W0.3 kmh W -- 30.09 in1019.0 mb 0.00 in0.0 mm 0.00 in0.0 mm 0.01 in0.3 mm
12:37 PM 42.7°F5.9°C 38.5°F3.6°C 85% 0.4 mph WSW0.6 kmh WSW -- 30.09 in1019.0 mb 0.00 in0.0 mm 0.00 in0.0 mm 0.01 in0.3 mm
12:31 PM 42.1°F5.6°C 38.2°F3.4°C 86% 0.1 mph WNW0.2 kmh WNW -- 30.10 in1019.3 mb 0.00 in0.0 mm 0.00 in0.0 mm 0.01 in0.3 mm
12:26 PM 42.0°F5.6°C 37.8°F3.2°C 85% 0.4 mph NNW0.6 kmh NNW -- 30.10 in1019.3 mb 0.00 in0.0 mm 0.00 in0.0 mm 0.01 in0.3 mm
12:20 PM 41.8°F5.4°C 37.9°F3.3°C 86% 1.7 mph WSW2.7 kmh WSW -- 30.10 in1019.3 mb 0.00 in0.0 mm 0.00 in0.0 mm 0.01 in0.3 mm
12:15 PM 41.7°F5.4°C 38.1°F3.4°C 87% 2.0 mph WNW3.2 kmh WNW -- 30.10 in1019.3 mb 0.00 in0.0 mm 0.00 in0.0 mm 0.01 in0.3 mm
12:10 PM 41.3°F5.2°C 38.0°F3.3°C 88% 1.2 mph NW1.9 kmh NW -- 30.10 in1019.3 mb 0.00 in0.0 mm 0.00 in0.0 mm 0.01 in0.3 mm
12:04 PM 41.2°F5.1°C 37.9°F3.3°C 88% 0.5 mph SW0.8 kmh SW -- 30.10 in1019.3 mb 0.00 in0.0 mm 0.00 in0.0 mm 0.01 in0.3 mm
11:58 AM 40.9°F4.9°C 38.2°F3.4°C 90% 0.1 mph NNW0.2 kmh NNW -- 30.10 in1019.3 mb 0.00 in0.0 mm 0.00 in0.0 mm 0.01 in0.3 mm
11:53 AM 40.3°F4.6°C 38.2°F3.4°C 92% 0.5 mph SW0.8 kmh SW -- 30.10 in1019.3 mb 0.00 in0.0 mm 0.00 in0.0 mm 0.01 in0.3 mm
11:48 AM 39.7°F4.3°C 37.6°F3.1°C 92% 0.4 mph SSE0.6 kmh SSE -- 30.10 in1019.3 mb 0.00 in0.0 mm 0.00 in0.0 mm 0.01 in0.3 mm
11:42 AM 39.2°F4.0°C 37.1°F2.8°C 92% 1.2 mph WSW1.9 kmh WSW -- 30.10 in1019.3 mb 0.00 in0.0 mm 0.00 in0.0 mm 0.01 in0.3 mm
11:37 AM 39.2°F4.0°C 37.3°F2.9°C 93% 0.3 mph NNW0.5 kmh NNW -- 30.10 in1019.3 mb 0.00 in0.0 mm 0.00 in0.0 mm 0.01 in0.3 mm
11:32 AM 39.2°F4.0°C 37.3°F2.9°C 93% 1.7 mph NNW2.7 kmh NNW -- 30.10 in1019.3 mb 0.00 in0.0 mm 0.00 in0.0 mm 0.01 in0.3 mm
11:26 AM 39.2°F4.0°C 37.3°F2.9°C 93% 1.2 mph WNW1.9 kmh WNW -- 30.10 in1019.3 mb 0.00 in0.0 mm 0.00 in0.0 mm 0.01 in0.3 mm
11:21 AM 39.2°F4.0°C 37.3°F2.9°C 93% Calm Calm -- 30.10 in1019.3 mb 0.00 in0.0 mm 0.00 in0.0 mm 0.01 in0.3 mm
11:16 AM 39.2°F4.0°C 37.6°F3.1°C 94% 1.2 mph WNW1.9 kmh WNW -- 30.10 in1019.3 mb 0.00 in0.0 mm 0.00 in0.0 mm 0.01 in0.3 mm
11:10 AM 39.0°F3.9°C 37.4°F3.0°C 94% Calm Calm -- 30.10 in1019.3 mb 0.00 in0.0 mm 0.00 in0.0 mm 0.01 in0.3 mm
11:05 AM 38.8°F3.8°C 37.0°F2.8°C 93% 0.4 mph WNW0.6 kmh WNW -- 30.10 in1019.3 mb 0.00 in0.0 mm 0.00 in0.0 mm 0.01 in0.3 mm
10:59 AM 38.5°F3.6°C 37.2°F2.9°C 95% 1.0 mph NW1.6 kmh NW -- 30.10 in1019.3 mb 0.00 in0.0 mm 0.00 in0.0 mm 0.01 in0.3 mm
10:54 AM 38.2°F3.4°C 36.9°F2.7°C 95% 0.7 mph N1.1 kmh N -- 30.10 in1019.3 mb 0.00 in0.0 mm 0.00 in0.0 mm 0.01 in0.3 mm
10:48 AM 38.1°F3.4°C 36.5°F2.5°C 94% Calm Calm -- 30.10 in1019.3 mb 0.00 in0.0 mm 0.00 in0.0 mm 0.01 in0.3 mm
10:42 AM 37.8°F3.2°C 36.5°F2.5°C 95% 2.3 mph NNW3.7 kmh NNW -- 30.11 in1019.6 mb 0.00 in0.0 mm 0.00 in0.0 mm 0.01 in0.3 mm
10:36 AM 37.8°F3.2°C 36.5°F2.5°C 95% 1.2 mph NW1.9 kmh NW -- 30.10 in1019.3 mb 0.00 in0.0 mm 0.00 in0.0 mm 0.01 in0.3 mm
10:30 AM 37.8°F3.2°C 36.5°F2.5°C 95% 1.2 mph NNW1.9 kmh NNW -- 30.10 in1019.3 mb 0.00 in0.0 mm 0.00 in0.0 mm 0.01 in0.3 mm
10:24 AM 37.7°F3.2°C 36.4°F2.4°C 95% 1.5 mph NNW2.4 kmh NNW -- 30.10 in1019.3 mb 0.00 in0.0 mm 0.00 in0.0 mm 0.01 in0.3 mm
10:18 AM 37.7°F3.2°C 36.4°F2.4°C 95% 0.6 mph NW1.0 kmh NW -- 30.10 in1019.3 mb 0.00 in0.0 mm 0.00 in0.0 mm 0.01 in0.3 mm
10:12 AM 37.6°F3.1°C 36.6°F2.6°C 96% 0.7 mph WNW1.1 kmh WNW -- 30.10 in1019.3 mb 0.00 in0.0 mm 0.00 in0.0 mm 0.01 in0.3 mm
10:07 AM 37.5°F3.1°C 36.5°F2.5°C 96% 0.5 mph N0.8 kmh N -- 30.10 in1019.3 mb 0.00 in0.0 mm 0.00 in0.0 mm 0.01 in0.3 mm
10:01 AM 37.5°F3.1°C 36.7°F2.6°C 97% 0.6 mph NNW1.0 kmh NNW -- 30.10 in1019.3 mb 0.00 in0.0 mm 0.00 in0.0 mm 0.01 in0.3 mm
09:55 AM 37.3°F2.9°C 36.8°F2.7°C 98% 1.0 mph WNW1.6 kmh WNW -- 30.10 in1019.3 mb 0.00 in0.0 mm 0.00 in0.0 mm 0.01 in0.3 mm
09:49 AM 37.3°F2.9°C 36.8°F2.7°C 98% 0.2 mph WNW0.3 kmh WNW -- 30.10 in1019.3 mb 0.00 in0.0 mm 0.00 in0.0 mm 0.00 in0.0 mm
09:44 AM 37.3°F2.9°C 36.8°F2.7°C 98% 0.4 mph NNW0.6 kmh NNW -- 30.10 in1019.3 mb 0.00 in0.0 mm 0.00 in0.0 mm 0.00 in0.0 mm
09:38 AM 37.2°F2.9°C 36.7°F2.6°C 98% Calm Calm -- 30.10 in1019.3 mb 0.00 in0.0 mm 0.00 in0.0 mm 0.00 in0.0 mm
09:32 AM 37.2°F2.9°C 36.7°F2.6°C 98% 0.7 mph WSW1.1 kmh WSW -- 30.10 in1019.3 mb 0.00 in0.0 mm 0.00 in0.0 mm 0.00 in0.0 mm
09:26 AM 37.1°F2.8°C 36.6°F2.6°C 98% 0.5 mph WNW0.8 kmh WNW -- 30.10 in1019.3 mb 0.00 in0.0 mm 0.00 in0.0 mm 0.00 in0.0 mm
09:20 AM 37.0°F2.8°C 36.2°F2.3°C 97% 1.5 mph WNW2.4 kmh WNW -- 30.10 in1019.3 mb 0.00 in0.0 mm 0.00 in0.0 mm 0.00 in0.0 mm
09:15 AM 37.0°F2.8°C 36.5°F2.5°C 98% Calm Calm -- 30.09 in1019.0 mb 0.00 in0.0 mm 0.00 in0.0 mm 0.00 in0.0 mm
09:10 AM 37.0°F2.8°C 36.5°F2.5°C 98% Calm Calm -- 30.09 in1019.0 mb 0.00 in0.0 mm 0.00 in0.0 mm 0.00 in0.0 mm
09:04 AM 36.8°F2.7°C 36.3°F2.4°C 98% Calm Calm -- 30.09 in1019.0 mb 0.00 in0.0 mm 0.00 in0.0 mm 0.00 in0.0 mm
08:58 AM 36.8°F2.7°C 36.3°F2.4°C 98% 0.3 mph WNW0.5 kmh WNW -- 30.09 in1019.0 mb 0.00 in0.0 mm 0.00 in0.0 mm 0.00 in0.0 mm
08:52 AM 36.7°F2.6°C 35.9°F2.2°C 97% 0.1 mph SSE0.2 kmh SSE -- 30.09 in1019.0 mb 0.00 in0.0 mm 0.00 in0.0 mm 0.00 in0.0 mm
08:47 AM 36.7°F2.6°C 35.9°F2.2°C 97% 1.0 mph WNW1.6 kmh WNW -- 30.09 in1019.0 mb 0.00 in0.0 mm 0.00 in0.0 mm 0.00 in0.0 mm
08:42 AM 36.7°F2.6°C 36.2°F2.3°C 98% 0.5 mph WNW0.8 kmh WNW -- 30.09 in1019.0 mb 0.00 in0.0 mm 0.00 in0.0 mm 0.00 in0.0 mm
08:37 AM 36.7°F2.6°C 36.2°F2.3°C 98% 0.2 mph W0.3 kmh W -- 30.09 in1019.0 mb 0.00 in0.0 mm 0.00 in0.0 mm 0.00 in0.0 mm
08:31 AM 36.7°F2.6°C 36.2°F2.3°C 98% Calm Calm -- 30.09 in1019.0 mb 0.00 in0.0 mm 0.00 in0.0 mm 0.00 in0.0 mm
08:26 AM 36.7°F2.6°C 36.2°F2.3°C 98% 1.1 mph WNW1.8 kmh WNW -- 30.09 in1019.0 mb 0.00 in0.0 mm 0.00 in0.0 mm 0.00 in0.0 mm
08:21 AM 36.7°F2.6°C 36.2°F2.3°C 98% Calm Calm -- 30.09 in1019.0 mb 0.00 in0.0 mm 0.00 in0.0 mm 0.00 in0.0 mm
08:15 AM 36.7°F2.6°C 36.2°F2.3°C 98% 0.3 mph WNW0.5 kmh WNW -- 30.08 in1018.6 mb 0.00 in0.0 mm 0.00 in0.0 mm 0.00 in0.0 mm
08:10 AM 36.7°F2.6°C 36.2°F2.3°C 98% 2.3 mph NW3.7 kmh NW -- 30.08 in1018.6 mb 0.00 in0.0 mm 0.00 in0.0 mm 0.00 in0.0 mm
08:04 AM 36.7°F2.6°C 35.9°F2.2°C 97% 0.3 mph NW0.5 kmh NW -- 30.09 in1019.0 mb 0.00 in0.0 mm 0.00 in0.0 mm 0.00 in0.0 mm
07:59 AM 36.7°F2.6°C 35.9°F2.2°C 97% 0.7 mph NW1.1 kmh NW -- 30.08 in1018.6 mb 0.00 in0.0 mm 0.00 in0.0 mm 0.00 in0.0 mm
07:53 AM 37.0°F2.8°C 36.2°F2.3°C 97% 0.9 mph WNW1.4 kmh WNW -- 30.08 in1018.6 mb 0.00 in0.0 mm 0.00 in0.0 mm 0.00 in0.0 mm
07:47 AM 37.0°F2.8°C 36.2°F2.3°C 97% 2.0 mph W3.2 kmh W -- 30.08 in1018.6 mb 0.00 in0.0 mm 0.00 in0.0 mm 0.00 in0.0 mm
07:42 AM 37.0°F2.8°C 36.2°F2.3°C 97% 0.8 mph NNW1.3 kmh NNW -- 30.08 in1018.6 mb 0.00 in0.0 mm 0.00 in0.0 mm 0.00 in0.0 mm
07:37 AM 37.1°F2.8°C 36.3°F2.4°C 97% 1.6 mph WNW2.6 kmh WNW -- 30.08 in1018.6 mb 0.00 in0.0 mm 0.00 in0.0 mm 0.00 in0.0 mm
07:31 AM 37.2°F2.9°C 36.4°F2.4°C 97% 0.1 mph WNW0.2 kmh WNW -- 30.08 in1018.6 mb 0.00 in0.0 mm 0.00 in0.0 mm 0.00 in0.0 mm
07:25 AM 37.2°F2.9°C 36.4°F2.4°C 97% 1.4 mph NW2.3 kmh NW -- 30.08 in1018.6 mb 0.00 in0.0 mm 0.00 in0.0 mm 0.00 in0.0 mm
07:19 AM 37.2°F2.9°C 36.4°F2.4°C 97% Calm Calm -- 30.08 in1018.6 mb 0.00 in0.0 mm 0.00 in0.0 mm 0.00 in0.0 mm
07:14 AM 37.3°F2.9°C 36.5°F2.5°C 97% 2.2 mph WNW3.5 kmh WNW -- 30.08 in1018.6 mb 0.00 in0.0 mm 0.00 in0.0 mm 0.00 in0.0 mm
07:08 AM 37.3°F2.9°C 36.5°F2.5°C 97% 0.4 mph W0.6 kmh W -- 30.08 in1018.6 mb 0.00 in0.0 mm 0.00 in0.0 mm 0.00 in0.0 mm
07:02 AM 37.3°F2.9°C 36.5°F2.5°C 97% 0.3 mph NNW0.5 kmh NNW -- 30.08 in1018.6 mb 0.00 in0.0 mm 0.00 in0.0 mm 0.00 in0.0 mm
06:57 AM 37.3°F2.9°C 36.5°F2.5°C 97% 0.8 mph WNW1.3 kmh WNW -- 30.08 in1018.6 mb 0.00 in0.0 mm 0.00 in0.0 mm 0.00 in0.0 mm
06:51 AM 37.3°F2.9°C 36.5°F2.5°C 97% Calm Calm -- 30.07 in1018.3 mb 0.00 in0.0 mm 0.00 in0.0 mm 0.00 in0.0 mm
06:45 AM 37.3°F2.9°C 36.3°F2.4°C 96% 0.4 mph NNW0.6 kmh NNW -- 30.07 in1018.3 mb 0.00 in0.0 mm 0.00 in0.0 mm 0.00 in0.0 mm
06:40 AM 37.3°F2.9°C 36.3°F2.4°C 96% Calm Calm -- 30.07 in1018.3 mb 0.00 in0.0 mm 0.00 in0.0 mm 0.00 in0.0 mm
06:35 AM 37.3°F2.9°C 36.5°F2.5°C 97% Calm Calm -- 30.08 in1018.6 mb 0.00 in0.0 mm 0.00 in0.0 mm 0.00 in0.0 mm
06:30 AM 37.4°F3.0°C 36.6°F2.6°C 97% 1.3 mph NNW2.1 kmh NNW -- 30.07 in1018.3 mb 0.00 in0.0 mm 0.00 in0.0 mm 0.00 in0.0 mm
06:25 AM 37.3°F2.9°C 36.5°F2.5°C 97% 1.0 mph NW1.6 kmh NW -- 30.08 in1018.6 mb 0.00 in0.0 mm 0.00 in0.0 mm 0.00 in0.0 mm
06:19 AM 37.3°F2.9°C 36.5°F2.5°C 97% Calm Calm -- 30.08 in1018.6 mb 0.00 in0.0 mm 0.00 in0.0 mm 0.00 in0.0 mm
06:14 AM 37.5°F3.1°C 36.7°F2.6°C 97% Calm Calm -- 30.08 in1018.6 mb 0.00 in0.0 mm 0.00 in0.0 mm 0.00 in0.0 mm
06:08 AM 37.6°F3.1°C 36.6°F2.6°C 96% 1.0 mph WNW1.6 kmh WNW -- 30.08 in1018.6 mb 0.00 in0.0 mm 0.00 in0.0 mm 0.00 in0.0 mm
06:03 AM 37.6°F3.1°C 36.6°F2.6°C 96% 1.0 mph WNW1.6 kmh WNW -- 30.08 in1018.6 mb 0.00 in0.0 mm 0.00 in0.0 mm 0.00 in0.0 mm
05:57 AM 37.6°F3.1°C 36.8°F2.7°C 97% 0.3 mph WNW0.5 kmh WNW -- 30.08 in1018.6 mb 0.00 in0.0 mm 0.00 in0.0 mm 0.00 in0.0 mm
05:52 AM 37.7°F3.2°C 36.9°F2.7°C 97% 1.0 mph WNW1.6 kmh WNW -- 30.08 in1018.6 mb 0.00 in0.0 mm 0.00 in0.0 mm 0.00 in0.0 mm
05:47 AM 37.7°F3.2°C 36.9°F2.7°C 97% 0.3 mph NW0.5 kmh NW -- 30.08 in1018.6 mb 0.00 in0.0 mm 0.00 in0.0 mm 0.00 in0.0 mm
05:42 AM 37.6°F3.1°C 36.6°F2.6°C 96% Calm Calm -- 30.08 in1018.6 mb 0.00 in0.0 mm 0.00 in0.0 mm 0.00 in0.0 mm
05:37 AM 37.6°F3.1°C 36.6°F2.6°C 96% 0.3 mph NW0.5 kmh NW -- 30.08 in1018.6 mb 0.00 in0.0 mm 0.00 in0.0 mm 0.00 in0.0 mm
05:31 AM 37.6°F3.1°C 36.6°F2.6°C 96% 0.2 mph NNW0.3 kmh NNW -- 30.08 in1018.6 mb 0.00 in0.0 mm 0.00 in0.0 mm 0.00 in0.0 mm
05:26 AM 37.6°F3.1°C 36.6°F2.6°C 96% 3.4 mph NW5.5 kmh NW -- 30.08 in1018.6 mb 0.00 in0.0 mm 0.00 in0.0 mm 0.00 in0.0 mm
05:20 AM 37.6°F3.1°C 36.6°F2.6°C 96% 0.9 mph NNW1.4 kmh NNW -- 30.08 in1018.6 mb 0.00 in0.0 mm 0.00 in0.0 mm 0.00 in0.0 mm
05:14 AM 37.6°F3.1°C 36.6°F2.6°C 96% Calm Calm -- 30.08 in1018.6 mb 0.00 in0.0 mm 0.00 in0.0 mm 0.00 in0.0 mm
05:09 AM 37.6°F3.1°C 36.6°F2.6°C 96% 0.9 mph WNW1.4 kmh WNW -- 30.08 in1018.6 mb 0.00 in0.0 mm 0.00 in0.0 mm 0.00 in0.0 mm
05:03 AM 37.6°F3.1°C 36.6°F2.6°C 96% 1.6 mph WNW2.6 kmh WNW -- 30.08 in1018.6 mb 0.00 in0.0 mm 0.00 in0.0 mm 0.00 in0.0 mm
04:58 AM 37.6°F3.1°C 36.6°F2.6°C 96% 2.9 mph NW4.7 kmh NW -- 30.08 in1018.6 mb 0.00 in0.0 mm 0.00 in0.0 mm 0.00 in0.0 mm
04:53 AM 37.6°F3.1°C 36.6°F2.6°C 96% 1.7 mph NW2.7 kmh NW -- 30.08 in1018.6 mb 0.00 in0.0 mm 0.00 in0.0 mm 0.00 in0.0 mm
04:47 AM 37.6°F3.1°C 36.6°F2.6°C 96% 0.6 mph NW1.0 kmh NW -- 30.07 in1018.3 mb 0.00 in0.0 mm 0.00 in0.0 mm 0.00 in0.0 mm
04:41 AM 37.6°F3.1°C 36.8°F2.7°C 97% 2.4 mph WNW3.9 kmh WNW -- 30.08 in1018.6 mb 0.00 in0.0 mm 0.00 in0.0 mm 0.00 in0.0 mm
04:36 AM 37.5°F3.1°C 36.5°F2.5°C 96% Calm Calm -- 30.08 in1018.6 mb 0.00 in0.0 mm 0.00 in0.0 mm 0.00 in0.0 mm
04:30 AM 37.5°F3.1°C 36.5°F2.5°C 96% Calm Calm -- 30.08 in1018.6 mb 0.00 in0.0 mm 0.00 in0.0 mm 0.00 in0.0 mm
04:24 AM 37.5°F3.1°C 36.5°F2.5°C 96% 2.2 mph NNW3.5 kmh NNW -- 30.08 in1018.6 mb 0.00 in0.0 mm 0.00 in0.0 mm 0.00 in0.0 mm
04:18 AM 37.6°F3.1°C 36.6°F2.6°C 96% 2.1 mph NW3.4 kmh NW -- 30.08 in1018.6 mb 0.00 in0.0 mm 0.00 in0.0 mm 0.00 in0.0 mm
04:13 AM 37.7°F3.2°C 36.7°F2.6°C 96% 2.0 mph NW3.2 kmh NW -- 30.08 in1018.6 mb 0.00 in0.0 mm 0.00 in0.0 mm 0.00 in0.0 mm
04:08 AM 37.7°F3.2°C 36.7°F2.6°C 96% 2.0 mph NW3.2 kmh NW -- 30.08 in1018.6 mb 0.00 in0.0 mm 0.00 in0.0 mm 0.00 in0.0 mm
04:03 AM 37.7°F3.2°C 36.4°F2.4°C 95% 1.4 mph W2.3 kmh W -- 30.08 in1018.6 mb 0.00 in0.0 mm 0.00 in0.0 mm 0.00 in0.0 mm
03:57 AM 37.7°F3.2°C 36.7°F2.6°C 96% 2.1 mph WNW3.4 kmh WNW -- 30.08 in1018.6 mb 0.00 in0.0 mm 0.00 in0.0 mm 0.00 in0.0 mm
03:51 AM 37.7°F3.2°C 36.7°F2.6°C 96% 2.0 mph WNW3.2 kmh WNW -- 30.08 in1018.6 mb 0.00 in0.0 mm 0.00 in0.0 mm 0.00 in0.0 mm
03:46 AM 37.7°F3.2°C 36.4°F2.4°C 95% 3.1 mph W5.0 kmh W -- 30.08 in1018.6 mb 0.00 in0.0 mm 0.00 in0.0 mm 0.00 in0.0 mm
03:40 AM 37.7°F3.2°C 36.1°F2.3°C 94% 0.3 mph WNW0.5 kmh WNW -- 30.08 in1018.6 mb 0.00 in0.0 mm 0.00 in0.0 mm 0.00 in0.0 mm
03:34 AM 37.8°F3.2°C 36.5°F2.5°C 95% 0.7 mph WNW1.1 kmh WNW -- 30.08 in1018.6 mb 0.00 in0.0 mm 0.00 in0.0 mm 0.00 in0.0 mm
03:29 AM 37.8°F3.2°C 36.5°F2.5°C 95% 2.3 mph WNW3.7 kmh WNW -- 30.08 in1018.6 mb 0.00 in0.0 mm 0.00 in0.0 mm 0.00 in0.0 mm
03:23 AM 37.8°F3.2°C 36.5°F2.5°C 95% 0.4 mph NNW0.6 kmh NNW -- 30.08 in1018.6 mb 0.00 in0.0 mm 0.00 in0.0 mm 0.00 in0.0 mm
03:17 AM 38.0°F3.3°C 36.7°F2.6°C 95% 0.5 mph NW0.8 kmh NW -- 30.08 in1018.6 mb 0.00 in0.0 mm 0.00 in0.0 mm 0.00 in0.0 mm
03:11 AM 38.0°F3.3°C 36.4°F2.4°C 94% 2.8 mph W4.5 kmh W -- 30.08 in1018.6 mb 0.00 in0.0 mm 0.00 in0.0 mm 0.00 in0.0 mm
03:06 AM 38.0°F3.3°C 36.7°F2.6°C 95% 2.8 mph WSW4.5 kmh WSW -- 30.08 in1018.6 mb 0.00 in0.0 mm 0.00 in0.0 mm 0.00 in0.0 mm
03:00 AM 38.0°F3.3°C 37.0°F2.8°C 96% 0.6 mph WNW1.0 kmh WNW -- 30.08 in1018.6 mb 0.00 in0.0 mm 0.00 in0.0 mm 0.00 in0.0 mm
02:54 AM 38.0°F3.3°C 37.0°F2.8°C 96% Calm Calm -- 30.08 in1018.6 mb 0.00 in0.0 mm 0.00 in0.0 mm 0.00 in0.0 mm
02:49 AM 38.0°F3.3°C 37.0°F2.8°C 96% 0.2 mph WNW0.3 kmh WNW -- 30.08 in1018.6 mb 0.00 in0.0 mm 0.00 in0.0 mm 0.00 in0.0 mm
02:43 AM 37.8°F3.2°C 36.5°F2.5°C 95% 0.1 mph WNW0.2 kmh WNW -- 30.08 in1018.6 mb 0.00 in0.0 mm 0.00 in0.0 mm 0.00 in0.0 mm
02:37 AM 37.9°F3.3°C 36.9°F2.7°C 96% 1.6 mph W2.6 kmh W -- 30.08 in1018.6 mb 0.00 in0.0 mm 0.00 in0.0 mm 0.00 in0.0 mm
02:32 AM 38.0°F3.3°C 37.0°F2.8°C 96% 2.0 mph WNW3.2 kmh WNW -- 30.08 in1018.6 mb 0.00 in0.0 mm 0.00 in0.0 mm 0.00 in0.0 mm
02:26 AM 37.8°F3.2°C 36.8°F2.7°C 96% 1.0 mph NW1.6 kmh NW -- 30.08 in1018.6 mb 0.00 in0.0 mm 0.00 in0.0 mm 0.00 in0.0 mm
02:20 AM 38.0°F3.3°C 37.0°F2.8°C 96% 2.4 mph NNW3.9 kmh NNW -- 30.08 in1018.6 mb 0.00 in0.0 mm 0.00 in0.0 mm 0.00 in0.0 mm
02:14 AM 38.0°F3.3°C 37.0°F2.8°C 96% 1.5 mph WNW2.4 kmh WNW -- 30.07 in1018.3 mb 0.00 in0.0 mm 0.00 in0.0 mm 0.00 in0.0 mm
02:09 AM 38.0°F3.3°C 37.0°F2.8°C 96% 1.7 mph NW2.7 kmh NW -- 30.07 in1018.3 mb 0.00 in0.0 mm 0.00 in0.0 mm 0.00 in0.0 mm
02:03 AM 38.0°F3.3°C 37.0°F2.8°C 96% 1.0 mph NW1.6 kmh NW -- 30.07 in1018.3 mb 0.00 in0.0 mm 0.00 in0.0 mm 0.00 in0.0 mm
01:57 AM 38.1°F3.4°C 37.1°F2.8°C 96% 2.1 mph WNW3.4 kmh WNW -- 30.07 in1018.3 mb 0.00 in0.0 mm 0.00 in0.0 mm 0.00 in0.0 mm
01:51 AM 38.1°F3.4°C 37.1°F2.8°C 96% 1.4 mph NW2.3 kmh NW -- 30.07 in1018.3 mb 0.00 in0.0 mm 0.00 in0.0 mm 0.00 in0.0 mm
01:46 AM 38.1°F3.4°C 37.1°F2.8°C 96% 1.0 mph NW1.6 kmh NW -- 30.07 in1018.3 mb 0.00 in0.0 mm 0.00 in0.0 mm 0.00 in0.0 mm
01:41 AM 38.1°F3.4°C 37.1°F2.8°C 96% 1.3 mph NW2.1 kmh NW -- 30.07 in1018.3 mb 0.00 in0.0 mm 0.00 in0.0 mm 0.00 in0.0 mm
01:35 AM 38.2°F3.4°C 37.2°F2.9°C 96% 0.7 mph NW1.1 kmh NW -- 30.07 in1018.3 mb 0.00 in0.0 mm 0.00 in0.0 mm 0.00 in0.0 mm
01:30 AM 38.1°F3.4°C 37.1°F2.8°C 96% 2.0 mph WNW3.2 kmh WNW -- 30.07 in1018.3 mb 0.00 in0.0 mm 0.00 in0.0 mm 0.00 in0.0 mm
01:25 AM 38.2°F3.4°C 37.2°F2.9°C 96% 0.9 mph N1.4 kmh N -- 30.07 in1018.3 mb 0.00 in0.0 mm 0.00 in0.0 mm 0.00 in0.0 mm
01:19 AM 38.2°F3.4°C 36.9°F2.7°C 95% 1.9 mph W3.1 kmh W -- 30.06 in1017.9 mb 0.00 in0.0 mm 0.00 in0.0 mm 0.00 in0.0 mm
01:13 AM 38.3°F3.5°C 37.0°F2.8°C 95% 2.7 mph WNW4.3 kmh WNW -- 30.07 in1018.3 mb 0.00 in0.0 mm 0.00 in0.0 mm 0.00 in0.0 mm
01:08 AM 38.5°F3.6°C 36.9°F2.7°C 94% 2.0 mph W3.2 kmh W -- 30.06 in1017.9 mb 0.00 in0.0 mm 0.00 in0.0 mm 0.00 in0.0 mm
01:03 AM 38.5°F3.6°C 37.2°F2.9°C 95% 2.0 mph W3.2 kmh W -- 30.07 in1018.3 mb 0.00 in0.0 mm 0.00 in0.0 mm 0.00 in0.0 mm
12:58 AM 38.5°F3.6°C 37.2°F2.9°C 95% 0.8 mph WNW1.3 kmh WNW -- 30.07 in1018.3 mb 0.00 in0.0 mm 0.00 in0.0 mm 0.00 in0.0 mm
12:53 AM 38.6°F3.7°C 37.3°F2.9°C 95% 1.5 mph WNW2.4 kmh WNW -- 30.07 in1018.3 mb 0.00 in0.0 mm 0.00 in0.0 mm 0.00 in0.0 mm
12:47 AM 38.7°F3.7°C 37.4°F3.0°C 95% 1.7 mph W2.7 kmh W -- 30.06 in1017.9 mb 0.00 in0.0 mm 0.00 in0.0 mm 0.00 in0.0 mm
12:41 AM 38.7°F3.7°C 37.4°F3.0°C 95% 3.2 mph NW5.1 kmh NW -- 30.06 in1017.9 mb 0.00 in0.0 mm 0.00 in0.0 mm 0.00 in0.0 mm
12:35 AM 38.7°F3.7°C 37.4°F3.0°C 95% 1.3 mph NW2.1 kmh NW -- 30.07 in1018.3 mb 0.00 in0.0 mm 0.00 in0.0 mm 0.00 in0.0 mm
12:30 AM 38.7°F3.7°C 37.1°F2.8°C 94% 1.0 mph NW1.6 kmh NW -- 30.07 in1018.3 mb 0.00 in0.0 mm 0.00 in0.0 mm 0.00 in0.0 mm
12:25 AM 38.7°F3.7°C 37.4°F3.0°C 95% 0.4 mph WSW0.6 kmh WSW -- 30.07 in1018.3 mb 0.00 in0.0 mm 0.00 in0.0 mm 0.00 in0.0 mm
12:20 AM 38.7°F3.7°C 37.4°F3.0°C 95% 1.9 mph WNW3.1 kmh WNW -- 30.07 in1018.3 mb 0.00 in0.0 mm 0.00 in0.0 mm 0.00 in0.0 mm
12:14 AM 38.8°F3.8°C 37.5°F3.1°C 95% 0.9 mph NW1.4 kmh NW -- 30.06 in1017.9 mb 0.00 in0.0 mm 0.00 in0.0 mm 0.00 in0.0 mm
12:08 AM 38.9°F3.8°C 37.6°F3.1°C 95% Calm Calm -- 30.06 in1017.9 mb 0.00 in0.0 mm 0.00 in0.0 mm 0.00 in0.0 mm
12:03 AM 39.0°F3.9°C 37.7°F3.2°C 95% 3.1 mph WNW5.0 kmh WNW -- 30.06 in1017.9 mb 0.00 in0.0 mm 0.00 in0.0 mm 0.00 in0.0 mm